Time;durP1;ratioP1;P1;durP2;ratioP2;P2;SDS_P1;SDS_P2;PMS_P1;PMS_P2;Temp;Humidity;BMP_temperature;BMP_pressure;BME280_temperature;BME280_humidity;BME280_pressure;Samples;Min_cycle;Max_cycle;Signal;HPM_P1;HPM_P2
2023/08/19 00:01:00;;;;;;;30.30;22.88;;;;;;;19.83;100.00;101290.16;5076649;28;20031;-80
2023/08/19 00:03:25;;;;;;;35.45;23.15;;;;;;;19.81;100.00;101287.66;5094659;28;20039;-80
2023/08/19 00:05:51;;;;;;;33.08;21.63;;;;;;;19.79;100.00;101286.16;5076523;28;20032;-80
2023/08/19 00:08:17;;;;;;;32.00;21.60;;;;;;;19.76;100.00;101284.63;5094198;28;20020;-79
2023/08/19 00:10:43;;;;;;;30.73;22.48;;;;;;;19.74;100.00;101279.41;5094566;28;20073;-79
2023/08/19 00:13:08;;;;;;;27.92;21.38;;;;;;;19.74;100.00;101284.00;5094530;28;20056;-78
2023/08/19 00:15:34;;;;;;;33.45;24.60;;;;;;;19.69;100.00;101276.47;5076347;28;20472;-79
2023/08/19 00:18:00;;;;;;;31.90;23.67;;;;;;;19.70;100.00;101280.00;5094716;28;20032;-80
2023/08/19 00:20:28;;;;;;;32.90;22.90;;;;;;;19.66;100.00;101276.84;5094311;28;20104;-80
2023/08/19 00:22:57;;;;;;;34.72;24.38;;;;;;;19.69;100.00;101267.50;5094164;28;20443;-80
2023/08/19 00:25:23;;;;;;;31.45;23.40;;;;;;;19.70;100.00;101274.59;5094248;28;20036;-79
2023/08/19 00:27:48;;;;;;;32.58;23.60;;;;;;;19.68;100.00;101272.09;5094649;28;20048;-80
2023/08/19 00:30:14;;;;;;;31.33;21.83;;;;;;;19.69;100.00;101264.81;5094128;28;20026;-79
2023/08/19 00:32:40;;;;;;;33.50;24.42;;;;;;;19.70;100.00;101259.22;5093979;28;20302;-80
2023/08/19 00:35:05;;;;;;;36.05;24.23;;;;;;;19.73;100.00;101261.56;5075792;28;20067;-80
2023/08/19 00:37:32;;;;;;;39.10;25.90;;;;;;;19.74;100.00;101257.00;5094023;28;20107;-80
2023/08/19 00:39:58;;;;;;;34.95;25.35;;;;;;;19.78;100.00;101252.06;5076854;28;20078;-80
2023/08/19 00:42:23;;;;;;;35.28;23.77;;;;;;;19.81;100.00;101265.19;5093960;28;20027;-80
2023/08/19 00:44:49;;;;;;;34.03;23.63;;;;;;;19.80;100.00;101241.94;5058894;28;20030;-80
2023/08/19 00:47:14;;;;;;;36.83;24.45;;;;;;;19.83;100.00;101245.09;5076465;28;20063;-80
2023/08/19 00:49:40;;;;;;;35.92;23.13;;;;;;;19.86;100.00;101238.47;5093999;28;20077;-80
2023/08/19 00:52:06;;;;;;;31.92;23.92;;;;;;;19.89;100.00;101236.22;5094096;28;20027;-80
2023/08/19 00:54:31;;;;;;;35.78;24.60;;;;;;;19.92;100.00;101243.09;5093683;28;20027;-80
2023/08/19 00:56:57;;;;;;;38.25;25.38;;;;;;;19.96;100.00;101239.00;5075533;28;20119;-80
2023/08/19 00:59:22;;;;;;;35.70;25.00;;;;;;;19.98;100.00;101228.00;5076340;28;20032;-80
2023/08/19 01:01:48;;;;;;;34.63;24.42;;;;;;;20.03;100.00;101233.66;5094273;28;20043;-80
2023/08/19 01:04:13;;;;;;;34.13;24.15;;;;;;;20.07;100.00;101235.78;5093659;28;20027;-81
2023/08/19 01:06:51;;;;;;;40.85;27.02;;;;;;;20.13;100.00;101230.66;5093620;28;20480;-80
2023/08/19 01:09:41;;;;;;;41.55;26.92;;;;;;;20.19;100.00;101229.88;5093585;28;20035;-78
2023/08/19 01:12:16;;;;;;;40.35;25.85;;;;;;;20.24;100.00;101224.72;5094251;28;20456;-80
2023/08/19 01:15:00;;;;;;;37.92;26.58;;;;;;;20.30;100.00;101226.63;5093581;28;20024;-81
2023/08/19 01:17:28;;;;;;;40.38;26.88;;;;;;;20.33;100.00;101220.88;5093444;28;20024;-80
2023/08/19 01:19:56;;;;;;;37.80;25.33;;;;;;;20.34;100.00;101222.53;5093557;28;20080;-81
2023/08/19 01:22:46;;;;;;;36.30;26.40;;;;;;;20.37;100.00;101227.53;5075315;28;20093;-80
2023/08/19 01:25:11;;;;;;;39.40;26.63;;;;;;;20.42;100.00;101225.09;5094182;28;20081;-80
2023/08/19 01:27:37;;;;;;;43.97;27.55;;;;;;;20.46;100.00;101222.84;5093403;28;20048;-81
2023/08/19 01:30:03;;;;;;;36.55;26.42;;;;;;;20.52;100.00;101213.94;5093462;28;20456;-81
2023/08/19 01:32:28;;;;;;;37.72;25.83;;;;;;;20.55;100.00;101218.97;5093048;28;20028;-81
2023/08/19 01:34:54;;;;;;;32.72;25.17;;;;;;;20.55;100.00;101207.31;5093923;28;20352;-81
2023/08/19 01:37:46;;;;;;;35.25;24.40;;;;;;;20.56;100.00;101209.81;5093862;28;20059;-78
2023/08/19 01:40:15;;;;;;;40.85;26.77;;;;;;;20.55;100.00;101216.25;5088867;28;20036;-81
2023/08/19 01:42:41;;;;;;;37.80;25.92;;;;;;;20.55;100.00;101208.16;5093774;28;20039;-80
2023/08/19 01:45:08;;;;;;;33.08;24.80;;;;;;;20.54;100.00;101211.91;5093024;28;20029;-81
2023/08/19 01:47:36;;;;;;;39.05;25.42;;;;;;;20.54;100.00;101211.91;5093456;28;20039;-81
2023/08/19 01:50:02;;;;;;;40.05;27.23;;;;;;;20.53;100.00;101207.50;5093307;28;20024;-81
2023/08/19 01:52:27;;;;;;;43.97;26.42;;;;;;;20.53;100.00;101206.69;5093235;28;20028;-81
2023/08/19 01:54:53;;;;;;;37.17;26.25;;;;;;;20.52;100.00;101208.53;5093123;28;20031;-81
2023/08/19 01:57:18;;;;;;;38.08;24.95;;;;;;;20.53;100.00;101212.09;5075473;28;20078;-81
2023/08/19 01:59:43;;;;;;;38.38;26.52;;;;;;;20.51;100.00;101208.72;5075397;28;20036;-81
2023/08/19 02:02:09;;;;;;;39.83;27.23;;;;;;;20.51;100.00;101206.03;5075056;28;20028;-81
2023/08/19 02:04:34;;;;;;;35.70;26.45;;;;;;;20.53;100.00;101198.59;5092733;28;20116;-81
2023/08/19 02:06:59;;;;;;;35.55;25.45;;;;;;;20.53;100.00;101198.59;5093072;28;20027;-82
2023/08/19 02:09:25;;;;;;;37.10;26.40;;;;;;;20.53;100.00;101198.59;5093316;28;20024;-80
2023/08/19 02:11:50;;;;;;;41.35;26.42;;;;;;;20.53;100.00;101187.78;5058790;28;20035;-79
2023/08/19 02:14:16;;;;;;;40.58;26.58;;;;;;;20.53;100.00;101193.19;5074856;28;20028;-81
2023/08/19 02:16:41;;;;;;;36.90;27.23;;;;;;;20.53;100.00;101195.88;5092968;28;20020;-81
2023/08/19 02:19:06;;;;;;;37.00;25.92;;;;;;;20.53;100.00;101190.47;5092955;28;20024;-81
2023/08/19 02:21:32;;;;;;;37.47;25.38;;;;;;;20.54;100.00;101186.72;5092648;28;20031;-81
2023/08/19 02:23:57;;;;;;;39.03;25.33;;;;;;;20.54;100.00;101184.88;5092657;28;20059;-81
2023/08/19 02:26:22;;;;;;;35.38;25.17;;;;;;;20.54;100.00;101179.47;5092643;28;20044;-81
2023/08/19 02:28:48;;;;;;;36.90;25.10;;;;;;;20.53;100.00;101180.50;5092876;28;20028;-81
2023/08/19 02:31:13;;;;;;;38.45;24.65;;;;;;;20.52;100.00;101172.56;5075217;28;20043;-81
2023/08/19 02:33:40;;;;;;;36.10;25.23;;;;;;;20.52;100.00;101169.88;5092784;28;20470;-81
2023/08/19 02:36:06;;;;;;;35.33;25.42;;;;;;;20.52;100.00;101169.88;5092713;28;20452;-82
2023/08/19 02:38:31;;;;;;;34.50;24.50;;;;;;;20.52;100.00;101161.75;5075043;28;20023;-81
2023/08/19 02:40:57;;;;;;;38.17;25.63;;;;;;;20.51;100.00;101169.06;5095569;28;20352;-82
2023/08/19 02:43:22;;;;;;;35.47;24.60;;;;;;;20.50;100.00;101169.25;5096141;28;20020;-81
2023/08/19 02:45:48;;;;;;;35.85;25.55;;;;;;;20.51;100.00;101162.78;5078067;28;20127;-82
2023/08/19 02:48:14;;;;;;;35.85;24.63;;;;;;;20.51;100.00;101168.19;5096315;28;20024;-81
2023/08/19 02:50:41;;;;;;;32.72;23.40;;;;;;;20.51;100.00;101157.38;5096114;28;20030;-81
2023/08/19 02:53:06;;;;;;;39.53;24.40;;;;;;;20.49;100.00;101148.66;5077989;28;20027;-81
2023/08/19 02:55:31;;;;;;;34.47;24.90;;;;;;;20.50;100.00;101155.72;5096487;28;20031;-81
2023/08/19 02:57:57;;;;;;;35.28;24.85;;;;;;;20.51;100.00;101157.38;5096083;28;20028;-82
2023/08/19 03:00:22;;;;;;;35.92;24.50;;;;;;;20.48;100.00;101157.78;5096562;28;20052;-81
2023/08/19 03:02:48;;;;;;;37.58;24.95;;;;;;;20.47;100.00;101161.50;5096058;28;20107;-82
2023/08/19 03:05:13;;;;;;;38.25;24.35;;;;;;;20.48;100.00;101155.94;5096694;28;20111;-82
2023/08/19 03:07:39;;;;;;;36.90;24.25;;;;;;;20.48;100.00;101146.97;5096124;28;20039;-81
2023/08/19 03:10:06;;;;;;;35.00;25.08;;;;;;;20.46;100.00;101138.25;5096466;28;20355;-82
2023/08/19 03:12:31;;;;;;;44.00;25.45;;;;;;;20.44;100.00;101123.03;5095766;28;20052;-82
2023/08/19 03:14:57;;;;;;;31.95;23.10;;;;;;;20.43;100.00;101115.97;5095597;28;20070;-82
2023/08/19 03:17:22;;;;;;;33.70;24.30;;;;;;;20.42;100.00;101113.47;5077688;28;20039;-82
2023/08/19 03:19:47;;;;;;;36.65;25.35;;;;;;;20.41;100.00;101115.34;5096160;28;20028;-81
2023/08/19 03:22:13;;;;;;;39.78;24.05;;;;;;;20.40;100.00;101115.53;5077530;28;20031;-82
2023/08/19 03:24:38;;;;;;;39.30;26.38;;;;;;;20.38;100.00;101114.91;5095544;28;20051;-81
2023/08/19 03:27:04;;;;;;;36.38;24.08;;;;;;;20.38;100.00;101139.22;5095380;28;20498;-82
2023/08/19 03:29:29;;;;;;;34.60;24.02;;;;;;;20.35;100.00;101151.25;5095438;28;20032;-82
2023/08/19 03:31:56;;;;;;;36.58;25.63;;;;;;;20.34;100.00;101149.56;5095364;28;20064;-83
2023/08/19 03:34:22;;;;;;;36.78;24.48;;;;;;;20.34;100.00;101149.56;5077520;28;20035;-82
2023/08/19 03:36:47;;;;;;;34.20;25.27;;;;;;;20.34;100.00;101157.69;5095462;28;20051;-82
2023/08/19 03:39:13;;;;;;;35.15;23.42;;;;;;;20.37;100.00;101149.19;5095325;28;20077;-82
2023/08/19 03:41:38;;;;;;;34.78;24.58;;;;;;;20.40;100.00;101156.91;5095082;28;20040;-81
2023/08/19 03:44:04;;;;;;;32.90;22.42;;;;;;;20.43;100.00;101156.50;5093855;28;20074;-81
2023/08/19 03:46:29;;;;;;;33.13;22.55;;;;;;;20.43;100.00;101163.78;5077391;28;20062;-82
2023/08/19 03:48:54;;;;;;;32.10;22.45;;;;;;;20.44;100.00;101169.00;5094991;28;20027;-82
2023/08/19 03:51:20;;;;;;;34.38;22.20;;;;;;;20.43;100.00;101153.78;5094742;28;20036;-81
2023/08/19 03:53:45;;;;;;;34.15;22.27;;;;;;;20.44;100.00;101163.59;5094732;28;20066;-82
2023/08/19 03:56:10;;;;;;;34.53;22.75;;;;;;;20.44;100.00;101158.19;5094852;28;20085;-82
2023/08/19 03:58:36;;;;;;;30.15;21.80;;;;;;;20.43;100.00;101158.38;5094826;28;20108;-82
2023/08/19 04:01:08;;;;;;;31.35;22.13;;;;;;;20.43;100.00;101153.78;5094984;28;20028;-82
2023/08/19 04:03:34;;;;;;;29.80;21.55;;;;;;;20.43;100.00;101153.78;5095038;28;20142;-82
2023/08/19 04:06:00;;;;;;;29.75;22.17;;;;;;;20.42;100.00;101157.56;5076516;28;20456;-82
2023/08/19 04:08:25;;;;;;;30.02;22.63;;;;;;;20.45;100.00;101161.69;5094330;28;20038;-83
2023/08/19 04:10:51;;;;;;;38.42;23.30;;;;;;;20.44;100.00;101147.38;5095039;28;20344;-82
2023/08/19 04:13:17;;;;;;;29.65;21.60;;;;;;;20.47;100.00;101153.41;5094665;28;20023;-82
2023/08/19 04:15:43;;;;;;;30.13;22.45;;;;;;;20.48;100.00;101149.66;5094463;28;20032;-82
2023/08/19 04:18:08;;;;;;;31.02;21.77;;;;;;;20.48;100.00;101155.06;5094998;28;20028;-82
2023/08/19 04:20:41;;;;;;;35.92;21.73;;;;;;;20.48;100.00;101152.38;5094358;28;20030;-82
2023/08/19 04:23:06;;;;;;;32.83;22.02;;;;;;;20.47;100.00;101151.56;5093991;28;20020;-82
2023/08/19 04:25:31;;;;;;;31.23;21.33;;;;;;;20.48;100.00;101155.06;5094781;28;20119;-82
2023/08/19 04:27:57;;;;;;;28.08;21.02;;;;;;;20.47;100.00;101154.25;5094016;28;20417;-82
2023/08/19 04:30:23;;;;;;;29.17;21.52;;;;;;;20.48;100.00;101158.63;5095010;28;20355;-82
2023/08/19 04:32:50;;;;;;;27.08;20.35;;;;;;;20.49;100.00;101156.75;5094186;28;20032;-82
2023/08/19 04:35:15;;;;;;;31.60;21.25;;;;;;;20.47;100.00;101151.56;5076697;28;20040;-82
2023/08/19 04:37:40;;;;;;;29.10;20.17;;;;;;;20.49;100.00;101154.06;5094119;28;20081;-82
2023/08/19 04:40:09;;;;;;;26.98;19.67;;;;;;;20.50;100.00;101155.72;5094096;28;20467;-82
2023/08/19 04:42:38;;;;;;;35.70;21.15;;;;;;;20.51;100.00;101152.84;5093984;28;20031;-82
2023/08/19 04:45:07;;;;;;;27.73;19.92;;;;;;;20.54;100.00;101165.94;5093893;28;20364;-83
2023/08/19 04:47:35;;;;;;;26.52;19.67;;;;;;;20.55;100.00;101153.25;5094185;28;20024;-82
2023/08/19 04:50:03;;;;;;;26.20;18.70;;;;;;;20.57;100.00;101157.44;5093978;28;20027;-83
2023/08/19 04:52:31;;;;;;;29.27;19.40;;;;;;;20.58;100.00;101160.97;5094507;28;20422;-83
2023/08/19 04:54:56;;;;;;;27.35;18.92;;;;;;;20.60;100.00;101161.59;5094266;28;20055;-83
2023/08/19 04:57:22;;;;;;;31.35;24.00;;;;;;;20.61;100.00;101164.09;5093616;28;20109;-83
2023/08/19 04:59:47;;;;;;;24.90;18.65;;;;;;;20.61;100.00;101156.00;5093951;28;20032;-83
2023/08/19 05:02:12;;;;;;;25.73;19.90;;;;;;;20.60;100.00;101167.00;5093529;28;20028;-83
2023/08/19 05:04:37;;;;;;;28.25;19.77;;;;;;;20.56;100.00;101166.59;5093450;28;20036;-83
2023/08/19 05:07:03;;;;;;;28.15;19.63;;;;;;;20.54;100.00;101170.50;5093765;28;20039;-83
2023/08/19 05:09:28;;;;;;;25.08;18.65;;;;;;;20.48;100.00;101160.47;5093558;28;20024;-85
2023/08/19 05:11:53;;;;;;;25.33;18.75;;;;;;;20.44;100.00;101169.00;5075510;28;20439;-84
2023/08/19 05:14:19;;;;;;;27.38;19.08;;;;;;;20.41;100.00;101177.50;5093419;28;20057;-83
2023/08/19 05:16:44;;;;;;;34.65;19.75;;;;;;;20.38;100.00;101169.78;5093185;28;20111;-82
2023/08/19 05:19:18;;;;;;;25.65;19.38;;;;;;;20.36;100.00;101166.44;5075665;28;20032;-83
2023/08/19 05:21:44;;;;;;;26.15;19.73;;;;;;;20.36;100.00;101171.00;5093936;28;20032;-84
2023/08/19 05:24:11;;;;;;;27.85;19.45;;;;;;;20.33;100.00;101161.44;5093303;28;20428;-85
2023/08/19 05:26:37;;;;;;;29.02;19.20;;;;;;;20.31;100.00;101168.06;5093247;28;20098;-83
2023/08/19 05:29:03;;;;;;;30.65;21.20;;;;;;;20.30;100.00;101169.91;5093838;28;20138;-85
2023/08/19 05:31:29;;;;;;;35.17;20.92;;;;;;;20.33;100.00;101171.38;5093286;28;20075;-87
2023/08/19 05:33:54;;;;;;;30.75;20.95;;;;;;;20.35;100.00;101175.56;5093143;28;20032;-82
2023/08/19 05:36:20;;;;;;;27.35;21.23;;;;;;;20.39;100.00;101181.41;5093441;28;20039;-83
2023/08/19 05:38:45;;;;;;;27.58;20.15;;;;;;;20.44;100.00;101189.78;5092852;28;20028;-85
2023/08/19 05:41:11;;;;;;;28.60;19.95;;;;;;;20.52;100.00;101191.50;5092670;28;20131;-85
2023/08/19 05:43:36;;;;;;;28.90;21.23;;;;;;;20.59;100.00;101195.91;5093363;28;20035;-85
2023/08/19 05:46:06;;;;;;;28.77;20.42;;;;;;;20.70;100.00;101194.56;5093000;28;20184;-84
2023/08/19 05:48:32;;;;;;;27.67;19.88;;;;;;;20.81;100.00;101195.03;5093016;28;20032;-85
2023/08/19 05:50:58;;;;;;;27.15;19.27;;;;;;;20.90;100.00;101197.41;5092898;28;20085;-86
2023/08/19 05:53:23;;;;;;;24.75;18.35;;;;;;;20.98;100.00;101201.00;5093061;28;20031;-83
2023/08/19 05:55:48;;;;;;;27.63;17.40;;;;;;;21.05;100.00;101208.09;5092926;28;20039;-83
2023/08/19 05:58:15;;;;;;;26.77;18.10;;;;;;;21.10;100.00;101216.44;5093194;28;20111;-85
2023/08/19 06:00:40;;;;;;;25.35;18.00;;;;;;;21.19;100.00;101217.13;5092935;28;20055;-85
2023/08/19 06:03:06;;;;;;;21.60;15.50;;;;;;;21.30;100.00;101216.56;5092822;28;20032;-85
2023/08/19 06:05:31;;;;;;;25.40;15.82;;;;;;;21.42;100.00;101224.09;5092939;28;20122;-86
2023/08/19 06:07:57;;;;;;;20.70;14.38;;;;;;;21.49;100.00;101223.06;5075229;28;20059;-86
2023/08/19 06:10:23;;;;;;;20.13;13.60;;;;;;;21.53;100.00;101220.84;5074977;28;20074;-86
2023/08/19 06:12:48;;;;;;;18.60;12.98;;;;;;;21.59;100.00;101221.91;5092904;28;20111;-86
2023/08/19 06:15:13;;;;;;;19.92;13.02;;;;;;;21.64;100.00;101225.66;5095884;28;20024;-89
2023/08/19 06:17:39;;;;;;;22.35;13.30;;;;;;;21.71;100.00;101236.53;5096645;28;20086;-88
2023/08/19 06:20:05;;;;;;;14.60;11.80;;;;;;;21.80;100.00;101245.31;5096553;28;20036;-87
2023/08/19 06:22:30;;;;;;;15.65;12.02;;;;;;;21.84;100.00;101236.56;5096573;28;20043;-87
2023/08/19 06:24:56;;;;;;;18.02;12.10;;;;;;;21.88;100.00;101230.75;5078147;28;20071;-88
2023/08/19 06:27:21;;;;;;;15.93;12.00;;;;;;;21.88;100.00;101244.28;5096313;28;20044;-86
2023/08/19 06:29:46;;;;;;;19.02;12.10;;;;;;;21.88;100.00;101239.69;5096424;28;20464;-86
2023/08/19 06:32:12;;;;;;;16.05;12.25;;;;;;;21.84;100.00;101225.72;5077911;28;20383;-84
2023/08/19 06:34:38;;;;;;;16.00;11.85;;;;;;;21.77;100.00;101232.19;5095745;28;20032;-84
2023/08/19 06:37:04;;;;;;;18.83;12.35;;;;;;;21.67;100.00;101235.25;5096117;28;20039;-83
2023/08/19 06:39:32;;;;;;;16.85;11.77;;;;;;;21.59;100.00;101249.81;5095857;28;20376;-83
2023/08/19 06:42:03;;;;;;;19.67;12.95;;;;;;;21.52;100.00;101259.78;5096226;28;20474;-83
2023/08/19 06:44:30;;;;;;;;;;;;;;;21.46;100.00;101237.00;5096306;28;20027;-82
2023/08/19 06:46:56;;;;;;;15.98;13.55;;;;;;;21.42;100.00;101261.97;5077833;28;20359;-83
2023/08/19 06:49:22;;;;;;;25.75;14.30;;;;;;;21.41;100.00;101254.91;5095681;28;20036;-84
2023/08/19 06:51:48;;;;;;;17.48;13.40;;;;;;;21.41;100.00;101254.91;5095995;28;20092;-83
2023/08/19 06:54:14;;;;;;;26.35;13.75;;;;;;;21.43;100.00;101259.06;5096270;28;20039;-85
2023/08/19 06:56:53;;;;;;;18.55;13.23;;;;;;;21.47;100.00;101273.88;5096081;28;20032;-85
2023/08/19 06:59:29;;;;;;;18.17;13.15;;;;;;;21.53;100.00;101276.84;5096169;28;20456;-84
2023/08/19 07:01:59;;;;;;;21.30;13.05;;;;;;;21.61;100.00;101268.56;5095778;28;20434;-85
2023/08/19 07:04:27;;;;;;;16.20;12.30;;;;;;;21.74;100.00;101259.66;5095868;28;20051;-84
2023/08/19 07:06:56;;;;;;;17.83;11.95;;;;;;;21.88;100.00;101263.25;5095803;28;20438;-84
2023/08/19 07:09:22;;;;;;;16.58;12.23;;;;;;;22.06;100.00;101266.19;5095661;28;20032;-86
2023/08/19 07:11:49;;;;;;;17.15;11.90;;;;;;;22.25;100.00;101272.69;5095573;28;20028;-85
2023/08/19 07:14:15;;;;;;;17.15;11.23;;;;;;;22.46;100.00;101295.28;5095433;28;20040;-88
2023/08/19 07:16:41;;;;;;;15.60;10.18;;;;;;;22.57;100.00;101291.13;5077229;28;20490;-85
2023/08/19 07:19:10;;;;;;;16.63;11.60;;;;;;;22.58;100.00;101298.22;5094951;28;20020;-84
2023/08/19 07:21:36;;;;;;;14.60;10.45;;;;;;;22.59;100.00;101299.91;5096056;28;20027;-86
2023/08/19 07:24:02;;;;;;;18.58;10.05;;;;;;;22.56;100.00;101306.56;5095479;28;20053;-86
2023/08/19 07:26:28;;;;;;;15.18;10.40;;;;;;;22.48;100.00;101315.72;5094603;28;20032;-86
2023/08/19 07:28:54;;;;;;;15.95;9.38;;;;;;;22.45;100.00;101309.88;5095847;28;20052;-86
2023/08/19 07:31:22;;;;;;;15.55;9.57;;;;;;;22.39;100.00;101302.56;5095893;28;20036;-86
2023/08/19 07:33:47;;;;;;;18.42;9.77;;;;;;;22.36;100.00;101299.25;5095113;28;20036;-80
2023/08/19 07:36:13;;;;;;;14.18;10.45;;;;;;;22.35;100.00;101299.44;5095100;28;20077;-85
2023/08/19 07:38:38;;;;;;;20.58;9.82;;;;;;;22.34;100.00;101306.72;5095123;28;20085;-86
2023/08/19 07:41:04;;;;;;;15.65;9.35;;;;;;;22.39;100.00;101324.25;5095137;28;20073;-85
2023/08/19 07:43:29;;;;;;;14.32;10.77;;;;;;;22.45;100.00;101332.41;5095416;28;20058;-86
2023/08/19 07:45:54;;;;;;;17.50;10.88;;;;;;;22.54;100.00;101325.75;5095103;28;20032;-86
2023/08/19 07:48:20;;;;;;;15.52;11.02;;;;;;;22.61;100.00;101320.31;5076703;28;20032;-89
2023/08/19 07:50:45;;;;;;;16.98;11.60;;;;;;;22.67;100.00;101318.66;5094832;28;20028;-84
2023/08/19 07:53:12;;;;;;;18.55;11.52;;;;;;;22.69;100.00;101319.28;5094803;28;20107;-84
2023/08/19 07:55:38;;;;;;;16.73;10.98;;;;;;;22.76;100.00;101336.38;5094776;28;20028;-83
2023/08/19 07:58:03;;;;;;;21.42;11.65;;;;;;;22.82;100.00;101345.56;5094662;28;20143;-82
2023/08/19 08:00:29;;;;;;;15.98;11.77;;;;;;;22.89;100.00;101352.66;5094676;28;20034;-87
2023/08/19 08:02:54;;;;;;;15.15;11.73;;;;;;;22.96;100.00;101346.41;5094657;28;20036;-86
2023/08/19 08:05:20;;;;;;;18.83;10.93;;;;;;;23.11;100.00;101348.94;5094574;28;20036;-86
2023/08/19 08:07:45;;;;;;;17.95;10.25;;;;;;;23.31;100.00;101338.06;5094734;28;20067;-85
2023/08/19 08:10:10;;;;;;;16.30;9.75;;;;;;;23.59;100.00;101338.63;5094575;28;20526;-85
2023/08/19 08:12:36;;;;;;;16.50;9.98;;;;;;;23.80;100.00;101350.25;5094599;28;20453;-83
2023/08/19 08:15:03;;;;;;;15.40;10.25;;;;;;;24.02;100.00;101352.69;5095003;28;20039;-92
2023/08/19 08:17:28;;;;;;;13.70;9.23;;;;;;;24.27;100.00;101353.63;5095120;28;20067;-92
2023/08/19 08:19:56;;;;;;;13.40;8.63;;;;;;;24.46;100.00;101364.59;5094069;28;20063;-92
2023/08/19 08:22:21;;;;;;;15.77;8.10;;;;;;;24.44;100.00;101375.69;5094748;28;20039;-88
2023/08/19 08:24:47;;;;;;;10.25;7.03;;;;;;;24.40;100.00;101369.00;5094767;28;20036;-89
2023/08/19 08:27:13;;;;;;;9.43;6.63;;;;;;;24.41;100.00;101380.75;5094642;28;20048;-90
2023/08/19 08:29:38;;;;;;;9.98;5.97;;;;;;;24.21;100.00;101392.53;5076825;28;20372;-92
2023/08/19 08:32:04;;;;;;;8.38;5.22;;;;;;;24.24;100.00;101399.44;5094356;28;20028;-81
2023/08/19 08:34:29;;;;;;;8.02;5.45;;;;;;;24.47;100.00;101401.63;5094278;28;20039;-83
2023/08/19 08:36:55;;;;;;;5.57;4.80;;;;;;;24.47;100.00;101402.44;5093651;28;20063;-81
2023/08/19 08:39:20;;;;;;;8.88;4.82;;;;;;;24.46;100.00;101414.34;5093028;28;20032;-83
2023/08/19 08:41:45;;;;;;;5.80;4.15;;;;;;;24.48;100.00;101419.59;5076043;28;20120;-82
2023/08/19 08:44:11;;;;;;;5.80;4.20;;;;;;;24.59;100.00;101420.84;5093875;28;20510;-81
2023/08/19 08:46:39;;;;;;;5.05;3.60;;;;;;;24.91;100.00;101429.81;5093409;28;20052;-80
2023/08/19 08:49:05;;;;;;;9.02;3.75;;;;;;;25.08;100.00;101424.66;5093483;28;20028;-82
2023/08/19 08:51:30;;;;;;;5.13;3.72;;;;;;;25.12;100.00;101427.78;5075369;28;20020;-80
2023/08/19 08:53:59;;;;;;;6.78;3.67;;;;;;;25.34;100.00;101434.50;5093366;28;20491;-81
2023/08/19 08:56:24;;;;;;;6.75;3.83;;;;;;;25.50;100.00;101437.75;5093704;28;20028;-79
2023/08/19 08:58:51;;;;;;;6.22;3.90;;;;;;;25.83;100.00;101444.75;5094262;28;20055;-79
2023/08/19 09:01:17;;;;;;;5.57;3.50;;;;;;;26.25;100.00;101442.19;5093562;28;20032;-78
2023/08/19 09:03:45;;;;;;;4.57;3.45;;;;;;;26.59;100.00;101453.50;5093470;28;20059;-78
2023/08/19 09:06:15;;;;;;;4.65;3.65;;;;;;;26.94;100.00;101458.25;5075386;28;20039;-80
2023/08/19 09:08:48;;;;;;;7.40;3.33;;;;;;;27.47;100.00;101458.47;5093497;28;20105;-78
2023/08/19 09:11:25;;;;;;;7.55;3.83;;;;;;;27.93;100.00;101463.09;5093524;28;20580;-78
2023/08/19 09:14:00;;;;;;;5.70;3.58;;;;;;;28.09;100.00;101466.16;5093687;28;20028;-80
2023/08/19 09:16:25;;;;;;;4.55;3.47;;;;;;;27.23;100.00;101470.19;5093523;28;20028;-77
2023/08/19 09:18:51;;;;;;;5.40;3.80;;;;;;;26.56;100.00;101476.59;5092997;28;20039;-79
2023/08/19 09:21:17;;;;;;;6.97;3.90;;;;;;;26.42;100.00;101486.00;5093609;28;20060;-79
2023/08/19 09:23:42;;;;;;;6.25;4.18;;;;;;;26.37;100.00;101494.88;5093747;28;20060;-79
2023/08/19 09:26:10;;;;;;;7.70;3.92;;;;;;;26.97;100.00;101504.19;5075568;28;20035;-77
2023/08/19 09:28:36;;;;;;;6.18;4.13;;;;;;;28.01;100.00;101507.56;5093117;28;20435;-77
2023/08/19 09:31:15;;;;;;;5.80;3.70;;;;;;;28.96;100.00;101508.94;5093220;28;20108;-78
2023/08/19 09:33:44;;;;;;;5.30;3.40;;;;;;;29.71;100.00;101508.81;5092938;28;20032;-80
2023/08/19 09:36:09;;;;;;;7.03;3.70;;;;;;;30.10;100.00;101511.59;5093020;28;20035;-83
2023/08/19 09:38:35;;;;;;;5.65;4.00;;;;;;;30.46;95.22;101525.78;5093049;28;20369;-77
2023/08/19 09:41:03;;;;;;;5.97;3.92;;;;;;;29.87;96.60;101526.34;5093141;28;20083;-78
2023/08/19 09:43:28;;;;;;;7.50;4.15;;;;;;;29.06;100.00;101521.97;5092938;28;20036;-77
2023/08/19 09:46:00;;;;;;;6.75;4.22;;;;;;;29.36;100.00;101521.72;5093102;28;20421;-77
2023/08/19 09:48:26;;;;;;;5.43;3.72;;;;;;;29.10;100.00;101538.78;5093499;28;20081;-77
2023/08/19 09:50:51;;;;;;;6.93;4.30;;;;;;;28.15;100.00;101539.03;5096929;28;20385;-76
2023/08/19 09:53:18;;;;;;;6.28;4.10;;;;;;;27.87;100.00;101534.28;5097161;28;20054;-78
2023/08/19 09:55:48;;;;;;;7.75;4.85;;;;;;;27.15;100.00;101546.16;5096871;28;20036;-79
2023/08/19 09:58:13;;;;;;;7.93;5.20;;;;;;;26.56;100.00;101549.44;5078942;28;20049;-82
2023/08/19 10:00:39;;;;;;;5.60;4.70;;;;;;;26.03;100.00;101543.50;5096983;28;20055;-79
2023/08/19 10:03:06;;;;;;;8.18;4.78;;;;;;;25.59;100.00;101537.19;5097755;28;20111;-80
2023/08/19 10:05:37;;;;;;;6.20;4.30;;;;;;;25.43;100.00;101529.56;5097488;28;20066;-78
2023/08/19 10:08:20;;;;;;;8.15;4.60;;;;;;;25.20;100.00;101552.75;5079370;28;20024;-80
2023/08/19 10:10:46;;;;;;;9.63;5.10;;;;;;;24.86;100.00;101554.81;5096791;28;20060;-77
2023/08/19 10:13:14;;;;;;;9.23;5.22;;;;;;;24.60;100.00;101550.31;5096832;28;20107;-81
2023/08/19 10:15:42;;;;;;;6.38;4.72;;;;;;;24.37;100.00;101562.50;5078431;28;20357;-80
2023/08/19 10:18:19;;;;;;;6.32;4.75;;;;;;;24.35;100.00;101583.66;5096682;28;20034;-80
2023/08/19 10:20:52;;;;;;;10.00;5.40;;;;;;;24.32;100.00;101577.78;5096671;28;20059;-78
2023/08/19 10:23:18;;;;;;;10.65;4.80;;;;;;;24.29;100.00;101573.63;5096600;28;20131;-82
2023/08/19 10:25:45;;;;;;;8.20;5.50;;;;;;;24.26;100.00;101583.03;5096713;28;20044;-79
2023/08/19 10:28:12;;;;;;;7.78;5.57;;;;;;;24.57;100.00;101588.81;5096775;28;20044;-81
2023/08/19 10:30:38;;;;;;;7.18;5.70;;;;;;;24.89;100.00;101592.50;5096377;28;20028;-82
2023/08/19 10:33:24;;;;;;;8.18;5.80;;;;;;;25.27;100.00;101599.00;5097193;28;20024;-81
2023/08/19 10:36:03;;;;;;;8.20;5.07;;;;;;;26.15;100.00;101591.84;5095974;28;20043;-79
2023/08/19 10:38:57;;;;;;;8.05;5.43;;;;;;;26.78;100.00;101571.63;5097077;28;20088;-82
2023/08/19 10:41:30;;;;;;;10.15;5.95;;;;;;;26.66;100.00;101571.56;5097060;28;20035;-85
2023/08/19 10:43:58;;;;;;;6.13;5.25;;;;;;;26.16;100.00;101564.38;5096544;28;20120;-83
2023/08/19 10:46:40;;;;;;;7.30;4.95;;;;;;;25.62;100.00;101587.69;5096858;28;20032;-86
2023/08/19 10:49:19;;;;;;;7.43;3.97;;;;;;;25.33;100.00;101604.44;5097121;28;20058;-84
2023/08/19 10:51:45;;;;;;;6.40;3.50;;;;;;;25.33;100.00;101584.53;5096737;28;20031;-83
2023/08/19 10:54:11;;;;;;;6.60;3.42;;;;;;;25.29;100.00;101600.44;5096483;28;20036;-84
2023/08/19 10:56:36;;;;;;;6.88;3.78;;;;;;;24.88;100.00;101617.19;5078212;28;20089;-82
2023/08/19 10:59:02;;;;;;;7.57;3.65;;;;;;;24.49;100.00;101616.25;5096487;28;20028;-82
2023/08/19 11:01:30;;;;;;;5.25;3.15;;;;;;;24.18;100.00;101615.88;5076793;28;20487;-84
2023/08/19 11:03:58;;;;;;;11.52;3.63;;;;;;;24.01;100.00;101617.38;5095649;28;20067;-81
2023/08/19 11:06:30;;;;;;;6.70;3.58;;;;;;;23.86;100.00;101629.28;5095997;28;20035;-83